Terminal Aerodrome Forecast
Issued by NWS Burlington, VT

Home | Current Version | Previous Version | Text Only | Print | Product List | Glossary On
Versions: 1 2 3 4 5 6 7 8 9 10 11 12 13 14 15 16 17 18
000
FTUS41 KBTV 211700
TAFBTV
TAF
KBTV 211720Z 2118/2218 18011G22KT P6SM VCSH BKN150
     FM220100 19008KT P6SM -SHRA BKN040 OVC080
      TEMPO 2201/2205 6SM -SHRA BR BKN020
     FM220600 24008KT P6SM VCSH BKN040 OVC080
     FM220900 29010KT P6SM VCSH OVC025
     FM221500 29010G19KT P6SM OVC025=

USA.gov is the U.S. government's official web portal to all federal, state and local government web resources and services.